createdAt,value
2019-01-19T00:00:00.241Z,103.80
2019-01-19T00:00:31.381Z,106.60
2019-01-19T00:01:02.568Z,108.57
2019-01-19T00:01:33.766Z,109.12
2019-01-19T00:02:04.932Z,104.87
2019-01-19T00:02:36.110Z,111.50
2019-01-19T00:03:07.292Z,103.10
2019-01-19T00:03:38.480Z,103.53
2019-01-19T00:04:09.672Z,95.67
2019-01-19T00:04:40.872Z,100.82
2019-01-19T00:05:12.038Z,100.60
2019-01-19T00:05:43.206Z,99.15
2019-01-19T00:06:14.371Z,97.40
2019-01-19T00:06:45.559Z,99.50
2019-01-19T00:07:16.741Z,105.07
2019-01-19T00:07:47.924Z,93.95
2019-01-19T00:08:19.100Z,96.97
2019-01-19T00:08:50.268Z,94.72
2019-01-19T00:09:21.431Z,98.58
2019-01-19T00:09:52.655Z,98.22
2019-01-19T00:10:23.843Z,102.47
2019-01-19T00:10:55.071Z,96.57
2019-01-19T00:11:26.289Z,97.35
2019-01-19T00:11:57.476Z,96.53
2019-01-19T00:12:28.692Z,98.33
2019-01-19T00:12:59.871Z,101.15
2019-01-19T00:13:31.069Z,101.22
2019-01-19T00:14:02.267Z,96.80
2019-01-19T00:14:33.437Z,91.37
2019-01-19T00:15:04.669Z,98.78
2019-01-19T00:15:35.838Z,94.62
2019-01-19T00:16:07.003Z,99.65
2019-01-19T00:16:38.170Z,102.70
2019-01-19T00:17:09.352Z,93.03
2019-01-19T00:17:40.557Z,99.95
2019-01-19T00:18:11.731Z,101.67
2019-01-19T00:18:42.913Z,99.92
2019-01-19T00:19:14.228Z,95.80
2019-01-19T00:19:45.392Z,96.97
2019-01-19T00:20:16.575Z,98.67
2019-01-19T00:20:47.740Z,96.47
2019-01-19T00:21:18.908Z,97.85
2019-01-19T00:21:50.075Z,95.40
2019-01-19T00:22:21.232Z,94.83
2019-01-19T00:22:52.451Z,96.15
2019-01-19T00:23:23.620Z,96.20
2019-01-19T00:23:54.865Z,94.58
2019-01-19T00:24:26.036Z,96.12
2019-01-19T00:24:57.201Z,87.85
2019-01-19T00:25:30.679Z,89.77
2019-01-19T00:26:01.872Z,85.55
2019-01-19T00:26:33.043Z,84.65
2019-01-19T00:27:04.211Z,90.57
2019-01-19T00:27:35.400Z,86.30
2019-01-19T00:28:06.573Z,85.10
2019-01-19T00:28:37.754Z,79.77
2019-01-19T00:29:08.966Z,84.90
2019-01-19T00:29:40.184Z,87.02
2019-01-19T00:30:11.392Z,86.87
2019-01-19T00:30:42.553Z,80.65
2019-01-19T00:31:13.763Z,90.00
2019-01-19T00:31:44.937Z,85.47
2019-01-19T00:32:16.184Z,81.65
2019-01-19T00:32:47.371Z,94.90
2019-01-19T00:33:18.533Z,80.07
2019-01-19T00:33:50.519Z,80.42
2019-01-19T00:34:21.967Z,81.08
2019-01-19T00:34:53.140Z,86.28
2019-01-19T00:35:24.308Z,82.12
2019-01-19T00:35:55.483Z,84.72
2019-01-19T00:36:26.716Z,84.87
2019-01-19T00:36:57.881Z,81.80
2019-01-19T00:37:29.065Z,84.65
2019-01-19T00:38:00.237Z,80.45
2019-01-19T00:38:31.451Z,76.00
2019-01-19T00:39:02.630Z,81.85
2019-01-19T00:39:33.813Z,81.47
2019-01-19T00:40:05.248Z,80.30
2019-01-19T00:40:36.749Z,79.12
2019-01-19T00:41:07.908Z,75.30
2019-01-19T00:41:39.127Z,79.97
2019-01-19T00:42:11.208Z,83.95
2019-01-19T00:42:42.417Z,76.00
2019-01-19T00:43:13.601Z,87.57
2019-01-19T00:43:44.795Z,81.75
2019-01-19T00:44:15.977Z,79.32
2019-01-19T00:44:47.137Z,80.32
2019-01-19T00:45:18.320Z,78.28
2019-01-19T00:45:49.559Z,77.37
2019-01-19T00:46:20.721Z,78.25
2019-01-19T00:46:51.899Z,73.22
2019-01-19T00:47:23.085Z,78.00
2019-01-19T00:47:54.268Z,77.75
2019-01-19T00:48:25.437Z,74.75
2019-01-19T00:48:56.621Z,79.05
2019-01-19T00:49:27.786Z,83.07
2019-01-19T00:49:58.942Z,83.42
2019-01-19T00:50:30.174Z,79.92
2019-01-19T00:51:01.685Z,74.17
2019-01-19T00:51:32.854Z,79.25
2019-01-19T00:52:04.020Z,80.30
2019-01-19T00:52:35.213Z,73.30
2019-01-19T00:53:06.421Z,72.78
2019-01-19T00:53:37.605Z,69.03
2019-01-19T00:54:08.923Z,67.20
2019-01-19T00:54:40.098Z,69.58
2019-01-19T00:55:11.269Z,71.53
2019-01-19T00:55:42.479Z,70.37
2019-01-19T00:56:13.680Z,68.57
2019-01-19T00:56:44.851Z,68.52
2019-01-19T00:57:16.080Z,65.97
2019-01-19T00:57:47.252Z,71.65
2019-01-19T00:58:18.435Z,73.15
2019-01-19T00:58:49.668Z,72.60
2019-01-19T00:59:20.875Z,71.97
2019-01-19T00:59:52.064Z,64.03
2019-01-19T01:00:23.259Z,56.70
2019-01-19T01:00:54.443Z,61.45
2019-01-19T01:01:25.624Z,65.70
2019-01-19T01:01:56.843Z,59.50
2019-01-19T01:02:28.018Z,58.58
2019-01-19T01:02:59.192Z,59.88
2019-01-19T01:03:30.417Z,59.35
2019-01-19T01:04:01.584Z,56.23
2019-01-19T01:04:32.798Z,61.20
2019-01-19T01:05:04.024Z,63.28
2019-01-19T01:05:35.186Z,67.32
2019-01-19T01:06:06.382Z,62.30
2019-01-19T01:06:37.561Z,61.68
2019-01-19T01:07:09.652Z,68.30
2019-01-19T01:07:40.821Z,64.80
2019-01-19T01:08:11.997Z,64.70
2019-01-19T01:08:43.193Z,65.37
2019-01-19T01:09:14.372Z,63.87
2019-01-19T01:09:45.554Z,63.15
2019-01-19T01:10:16.805Z,66.65
2019-01-19T01:10:47.975Z,62.20
2019-01-19T01:11:19.149Z,62.75
2019-01-19T01:11:50.317Z,61.63
2019-01-19T01:12:21.508Z,65.42
2019-01-19T01:12:52.677Z,64.00
2019-01-19T01:13:23.832Z,64.55
2019-01-19T01:13:54.997Z,65.03
2019-01-19T01:14:26.160Z,62.73
2019-01-19T01:14:57.639Z,67.47
2019-01-19T01:15:28.879Z,65.67
2019-01-19T01:16:00.059Z,66.82
2019-01-19T01:16:31.229Z,64.40
2019-01-19T01:17:02.415Z,61.50
2019-01-19T01:17:33.585Z,59.45
2019-01-19T01:18:04.840Z,62.23
2019-01-19T01:18:36.048Z,65.05
2019-01-19T01:19:07.225Z,62.05
2019-01-19T01:19:38.415Z,59.08
2019-01-19T01:20:09.612Z,64.17
2019-01-19T01:20:41.820Z,63.90
2019-01-19T01:21:12.993Z,61.83
2019-01-19T01:21:44.166Z,60.17
2019-01-19T01:22:15.334Z,63.68
2019-01-19T01:22:46.514Z,59.58
2019-01-19T01:23:17.745Z,61.20
2019-01-19T01:23:48.952Z,66.65
2019-01-19T01:24:20.132Z,60.15
2019-01-19T01:24:51.301Z,59.70
2019-01-19T01:25:22.485Z,60.28
2019-01-19T01:25:53.693Z,65.10
2019-01-19T01:26:24.899Z,67.22
2019-01-19T01:26:56.077Z,62.55
2019-01-19T01:27:27.308Z,62.15
2019-01-19T01:27:58.476Z,66.35
2019-01-19T01:28:29.657Z,64.37
2019-01-19T01:29:00.886Z,61.73
2019-01-19T01:29:32.080Z,63.70
2019-01-19T01:30:03.293Z,64.47
2019-01-19T01:30:34.518Z,64.60
2019-01-19T01:31:05.720Z,65.20
2019-01-19T01:31:36.922Z,59.38
2019-01-19T01:32:08.115Z,58.90
2019-01-19T01:32:39.301Z,64.37
2019-01-19T01:33:10.489Z,64.45
2019-01-19T01:33:41.732Z,62.00
2019-01-19T01:34:12.889Z,66.92
2019-01-19T01:34:44.111Z,67.55
2019-01-19T01:35:15.283Z,69.22
2019-01-19T01:35:46.453Z,65.83
2019-01-19T01:36:17.646Z,66.82
2019-01-19T01:36:48.845Z,69.70
2019-01-19T01:37:20.028Z,70.65
2019-01-19T01:37:51.211Z,72.40
2019-01-19T01:38:22.462Z,76.80
2019-01-19T01:38:53.666Z,71.80
2019-01-19T01:39:24.853Z,74.55
2019-01-19T01:39:56.085Z,66.97
2019-01-19T01:40:27.250Z,67.22
2019-01-19T01:40:58.451Z,77.10
2019-01-19T01:41:29.731Z,64.60
2019-01-19T01:42:01.023Z,61.53
2019-01-19T01:42:32.250Z,64.75
2019-01-19T01:43:03.499Z,59.75
2019-01-19T01:43:34.701Z,62.90
2019-01-19T01:44:05.892Z,57.17
2019-01-19T01:44:37.111Z,61.65
2019-01-19T01:45:08.311Z,65.45
2019-01-19T01:45:39.506Z,64.80
2019-01-19T01:46:10.704Z,67.55
2019-01-19T01:46:41.904Z,59.75
2019-01-19T01:47:13.150Z,53.80
2019-01-19T01:47:44.387Z,53.83
2019-01-19T01:48:15.578Z,56.70
2019-01-19T01:48:46.797Z,47.25
2019-01-19T01:49:18.008Z,52.20
2019-01-19T01:49:49.214Z,53.50
2019-01-19T01:50:20.424Z,55.30
2019-01-19T01:50:51.687Z,52.65
2019-01-19T01:51:22.874Z,55.40
2019-01-19T01:51:54.077Z,54.18
2019-01-19T01:52:25.289Z,49.18
2019-01-19T01:52:56.557Z,48.38
2019-01-19T01:53:27.730Z,49.10
2019-01-19T01:53:58.916Z,46.05
2019-01-19T01:54:30.095Z,48.38
2019-01-19T01:55:01.299Z,53.83
2019-01-19T01:55:32.515Z,47.85
2019-01-19T01:56:03.765Z,49.88
2019-01-19T01:56:34.997Z,54.10
2019-01-19T01:57:06.222Z,52.23
2019-01-19T01:57:37.452Z,51.20
2019-01-19T01:58:08.699Z,48.85
2019-01-19T01:58:39.906Z,54.23
2019-01-19T01:59:11.078Z,48.85
2019-01-19T01:59:42.254Z,42.73
2019-01-19T02:00:13.450Z,47.55
2019-01-19T02:00:44.620Z,48.92
2019-01-19T02:01:15.821Z,47.90
2019-01-19T02:01:47.055Z,44.55
2019-01-19T02:02:18.297Z,47.15
2019-01-19T02:02:49.468Z,51.15
2019-01-19T02:03:20.644Z,52.20
2019-01-19T02:03:51.889Z,41.83
2019-01-19T02:04:23.085Z,49.95
2019-01-19T02:04:54.260Z,48.92
2019-01-19T02:05:25.459Z,50.35
2019-01-19T02:05:56.616Z,54.93
2019-01-19T02:06:27.802Z,49.13
2019-01-19T02:06:59.011Z,49.18
2019-01-19T02:07:30.192Z,54.75
2019-01-19T02:08:01.390Z,52.08
2019-01-19T02:08:32.625Z,46.60
2019-01-19T02:09:03.814Z,44.58
2019-01-19T02:09:35.019Z,45.43
2019-01-19T02:10:06.188Z,39.85
2019-01-19T02:10:37.371Z,41.33
2019-01-19T02:11:08.553Z,34.20
2019-01-19T02:11:39.740Z,38.20
2019-01-19T02:12:11.013Z,39.40
2019-01-19T02:12:42.247Z,37.25
2019-01-19T02:13:13.424Z,39.58
2019-01-19T02:13:44.648Z,36.03
2019-01-19T02:14:15.817Z,39.10
2019-01-19T02:14:47.031Z,37.58
2019-01-19T02:15:18.273Z,41.63
2019-01-19T02:15:49.460Z,40.33
2019-01-19T02:16:20.672Z,38.25
2019-01-19T02:16:51.957Z,42.75
2019-01-19T02:17:23.119Z,40.80
2019-01-19T02:17:54.317Z,39.80
2019-01-19T02:18:25.491Z,40.08
2019-01-19T02:18:56.699Z,39.73
2019-01-19T02:19:27.944Z,43.63
2019-01-19T02:19:59.117Z,41.33
2019-01-19T02:20:30.340Z,39.73
2019-01-19T02:21:01.526Z,40.55
2019-01-19T02:21:32.711Z,40.25
2019-01-19T02:22:06.960Z,40.52
2019-01-19T02:22:37.667Z,40.38
2019-01-19T02:23:08.856Z,40.08
2019-01-19T02:23:40.106Z,42.62
2019-01-19T02:24:11.305Z,41.98
2019-01-19T02:24:42.490Z,41.68
2019-01-19T02:25:13.665Z,41.35
2019-01-19T02:25:44.839Z,43.00
2019-01-19T02:26:16.039Z,40.88
2019-01-19T02:26:47.290Z,42.38
2019-01-19T02:27:18.490Z,37.42
2019-01-19T02:27:49.669Z,39.53
2019-01-19T02:28:20.867Z,43.08
2019-01-19T02:28:52.120Z,41.55
2019-01-19T02:29:23.307Z,44.40
2019-01-19T02:29:54.544Z,40.65
2019-01-19T02:30:25.734Z,45.70
2019-01-19T02:30:56.899Z,42.50
2019-01-19T02:31:28.082Z,44.42
2019-01-19T02:31:59.812Z,44.03
2019-01-19T02:32:31.070Z,42.75
2019-01-19T02:33:02.257Z,46.53
2019-01-19T02:33:33.449Z,45.45
2019-01-19T02:34:04.637Z,47.65
2019-01-19T02:34:35.875Z,45.23
2019-01-19T02:35:07.181Z,48.08
2019-01-19T02:35:38.399Z,40.80
2019-01-19T02:36:09.606Z,45.88
2019-01-19T02:36:40.818Z,44.88
2019-01-19T02:37:12.008Z,44.83
2019-01-19T02:37:43.206Z,47.40
2019-01-19T02:38:14.401Z,48.17
2019-01-19T02:38:45.615Z,49.05
2019-01-19T02:39:16.833Z,49.88
2019-01-19T02:39:48.035Z,47.17
2019-01-19T02:40:19.264Z,46.40
2019-01-19T02:40:50.500Z,44.63
2019-01-19T02:41:21.730Z,49.27
2019-01-19T02:41:52.965Z,46.25
2019-01-19T02:42:24.188Z,51.10
2019-01-19T02:42:55.401Z,49.98
2019-01-19T02:43:26.624Z,48.95
2019-01-19T02:43:57.847Z,47.35
2019-01-19T02:44:29.033Z,49.23
2019-01-19T02:45:01.328Z,49.58
2019-01-19T02:45:32.520Z,51.37
2019-01-19T02:46:03.742Z,48.48
2019-01-19T02:46:34.935Z,52.08
2019-01-19T02:47:06.156Z,50.15
2019-01-19T02:47:37.374Z,52.95
2019-01-19T02:48:08.632Z,50.78
2019-01-19T02:48:39.830Z,51.33
2019-01-19T02:49:11.036Z,53.63
2019-01-19T02:49:42.260Z,54.98
2019-01-19T02:50:13.447Z,53.40
2019-01-19T02:50:44.652Z,55.92
2019-01-19T02:51:15.864Z,51.75
2019-01-19T02:51:47.058Z,52.05
2019-01-19T02:52:18.254Z,51.60
2019-01-19T02:52:49.470Z,50.15
2019-01-19T02:53:20.646Z,55.45
2019-01-19T02:53:51.879Z,53.92
2019-01-19T02:54:23.080Z,51.33
2019-01-19T02:54:54.370Z,54.48
2019-01-19T02:55:25.567Z,50.92
2019-01-19T02:55:56.824Z,54.83
2019-01-19T02:56:28.055Z,52.85
2019-01-19T02:56:59.277Z,60.65
2019-01-19T02:57:30.501Z,56.02
2019-01-19T02:58:01.728Z,57.93
2019-01-19T02:58:32.978Z,59.58
2019-01-19T02:59:04.193Z,55.60
2019-01-19T02:59:35.394Z,52.27
2019-01-19T03:00:06.600Z,56.92
2019-01-19T03:00:37.815Z,57.08
2019-01-19T03:01:09.040Z,61.60
2019-01-19T03:01:40.226Z,54.50
2019-01-19T03:02:11.445Z,55.73
2019-01-19T03:02:42.655Z,56.30
2019-01-19T03:03:13.859Z,56.53
2019-01-19T03:03:45.152Z,58.40
2019-01-19T03:04:16.317Z,54.18
2019-01-19T03:04:47.514Z,58.58
2019-01-19T03:05:18.714Z,54.25
2019-01-19T03:05:56.115Z,53.08
2019-01-19T03:06:24.036Z,57.20
2019-01-19T03:06:55.217Z,56.83
2019-01-19T03:07:26.421Z,58.48
2019-01-19T03:07:57.632Z,62.27
2019-01-19T03:08:28.854Z,67.85
2019-01-19T03:09:00.160Z,58.85
2019-01-19T03:09:31.359Z,59.20
2019-01-19T03:10:02.572Z,60.63
2019-01-19T03:10:33.788Z,63.38
2019-01-19T03:11:05.030Z,62.67
2019-01-19T03:11:36.199Z,61.13
2019-01-19T03:12:07.449Z,61.33
2019-01-19T03:12:38.641Z,52.35
2019-01-19T03:13:09.848Z,50.85
2019-01-19T03:13:41.051Z,51.28
2019-01-19T03:14:12.293Z,51.30
2019-01-19T03:14:43.492Z,55.85
2019-01-19T03:15:14.700Z,60.03
2019-01-19T03:15:45.890Z,52.20
2019-01-19T03:16:17.113Z,53.63
2019-01-19T03:16:48.351Z,56.95
2019-01-19T03:17:19.555Z,51.65
2019-01-19T03:17:50.756Z,54.27
2019-01-19T03:18:22.000Z,56.95
2019-01-19T03:18:53.223Z,57.75
2019-01-19T03:19:24.501Z,53.50
2019-01-19T03:19:55.703Z,51.37
2019-01-19T03:20:26.887Z,52.75
2019-01-19T03:20:58.105Z,49.40
2019-01-19T03:21:29.314Z,51.90
2019-01-19T03:22:00.486Z,51.45
2019-01-19T03:22:31.673Z,47.75
2019-01-19T03:23:02.858Z,50.75
2019-01-19T03:23:34.047Z,48.85
2019-01-19T03:24:05.333Z,45.40
2019-01-19T03:24:36.625Z,43.38
2019-01-19T03:25:07.802Z,46.33
2019-01-19T03:25:39.018Z,45.28
2019-01-19T03:26:10.219Z,49.18
2019-01-19T03:26:41.423Z,48.68
2019-01-19T03:27:12.640Z,50.90
2019-01-19T03:27:43.877Z,47.90
2019-01-19T03:28:15.069Z,48.17
2019-01-19T03:28:46.346Z,43.80
2019-01-19T03:29:17.576Z,46.50
2019-01-19T03:29:48.804Z,51.42
2019-01-19T03:30:20.018Z,46.92
2019-01-19T03:30:51.261Z,46.80
2019-01-19T03:31:22.495Z,42.85
2019-01-19T03:31:53.758Z,45.38
2019-01-19T03:32:25.010Z,46.25
2019-01-19T03:32:56.330Z,46.02
2019-01-19T03:33:27.609Z,45.58
2019-01-19T03:33:58.811Z,49.20
2019-01-19T03:34:30.026Z,48.35
2019-01-19T03:35:01.222Z,47.15
2019-01-19T03:35:32.414Z,48.23
2019-01-19T03:36:04.530Z,47.13
2019-01-19T03:36:36.034Z,46.45
2019-01-19T03:37:07.217Z,45.38
2019-01-19T03:37:38.405Z,45.52
2019-01-19T03:38:09.576Z,48.20
2019-01-19T03:38:40.777Z,47.53
2019-01-19T03:39:12.048Z,50.98
2019-01-19T03:39:43.247Z,50.15
2019-01-19T03:40:14.439Z,48.40
2019-01-19T03:40:45.635Z,44.53
2019-01-19T03:41:16.865Z,42.25
2019-01-19T03:41:48.033Z,43.55
2019-01-19T03:42:19.216Z,44.48
2019-01-19T03:42:50.432Z,51.90
2019-01-19T03:43:21.662Z,48.83
2019-01-19T03:43:52.852Z,46.25
2019-01-19T03:44:24.118Z,50.15
2019-01-19T03:44:55.328Z,50.35
2019-01-19T03:45:26.583Z,52.73
2019-01-19T03:45:57.809Z,48.78
2019-01-19T03:46:29.007Z,50.23
2019-01-19T03:47:00.266Z,53.33
2019-01-19T03:47:31.442Z,63.33
2019-01-19T03:48:02.611Z,63.08
2019-01-19T03:48:33.802Z,61.90
2019-01-19T03:49:05.020Z,66.33
2019-01-19T03:49:36.226Z,60.45
2019-01-19T03:50:07.432Z,59.93
2019-01-19T03:50:38.613Z,56.33
2019-01-19T03:51:09.841Z,55.52
2019-01-19T03:51:41.072Z,57.48
2019-01-19T03:52:12.277Z,58.73
2019-01-19T03:52:43.453Z,60.38
2019-01-19T03:53:14.682Z,56.90
2019-01-19T03:53:45.892Z,60.80
2019-01-19T03:54:17.080Z,57.62
2019-01-19T03:54:48.247Z,56.85
2019-01-19T03:55:19.430Z,63.42
2019-01-19T03:55:50.685Z,66.40
2019-01-19T03:56:21.896Z,63.17
2019-01-19T03:56:53.069Z,61.58
2019-01-19T03:57:24.259Z,61.02
2019-01-19T03:57:55.541Z,60.38
2019-01-19T03:58:26.723Z,61.83
2019-01-19T03:58:57.912Z,59.42
2019-01-19T03:59:29.102Z,64.50
2019-01-19T04:00:00.301Z,61.30
2019-01-19T04:00:31.540Z,59.63
2019-01-19T04:01:02.754Z,60.35
2019-01-19T04:01:33.949Z,63.42
2019-01-19T04:02:05.197Z,59.38
2019-01-19T04:02:36.416Z,58.80
2019-01-19T04:03:07.610Z,60.63
2019-01-19T04:03:38.797Z,62.95
2019-01-19T04:04:09.974Z,58.35
2019-01-19T04:04:41.156Z,62.88
2019-01-19T04:05:12.352Z,61.55
2019-01-19T04:05:43.601Z,68.07
2019-01-19T04:06:14.792Z,64.35
2019-01-19T04:06:45.965Z,64.10
2019-01-19T04:07:18.031Z,64.17
2019-01-19T04:07:49.278Z,66.05
2019-01-19T04:08:20.467Z,67.40
2019-01-19T04:08:51.653Z,61.95
2019-01-19T04:09:22.910Z,64.95
2019-01-19T04:09:54.196Z,56.10
2019-01-19T04:10:25.436Z,57.65
2019-01-19T04:10:56.618Z,52.58
2019-01-19T04:11:27.816Z,60.12
2019-01-19T04:11:59.016Z,56.95
2019-01-19T04:12:30.299Z,55.67
2019-01-19T04:13:01.538Z,61.42
2019-01-19T04:13:32.766Z,60.58
2019-01-19T04:14:03.991Z,56.65
2019-01-19T04:14:35.323Z,57.33
2019-01-19T04:15:06.520Z,56.50
2019-01-19T04:15:37.723Z,60.83
2019-01-19T04:16:08.959Z,61.37
2019-01-19T04:16:40.131Z,61.35
2019-01-19T04:17:11.383Z,57.17
2019-01-19T04:17:42.612Z,59.60
2019-01-19T04:18:13.834Z,62.08
2019-01-19T04:18:45.027Z,58.23
2019-01-19T04:19:16.242Z,61.58
2019-01-19T04:19:47.461Z,61.42
2019-01-19T04:20:18.693Z,57.48
2019-01-19T04:20:49.906Z,56.70
2019-01-19T04:21:21.107Z,57.15
2019-01-19T04:21:52.289Z,55.90
2019-01-19T04:22:23.486Z,54.42
2019-01-19T04:22:54.749Z,58.52
2019-01-19T04:23:25.977Z,60.55
2019-01-19T04:23:57.166Z,57.23
2019-01-19T04:24:28.380Z,61.63
2019-01-19T04:24:59.634Z,55.05
2019-01-19T04:25:30.834Z,57.55
2019-01-19T04:26:02.055Z,58.28
2019-01-19T04:26:33.310Z,55.70
2019-01-19T04:27:04.518Z,58.25
2019-01-19T04:27:35.711Z,54.85
2019-01-19T04:28:06.913Z,53.40
2019-01-19T04:28:38.146Z,49.53
2019-01-19T04:29:09.362Z,50.75
2019-01-19T04:29:40.544Z,49.08
2019-01-19T04:30:11.769Z,54.95
2019-01-19T04:30:42.989Z,59.90
2019-01-19T04:31:14.178Z,57.70
2019-01-19T04:31:45.362Z,54.23
2019-01-19T04:32:16.535Z,61.80
2019-01-19T04:32:47.734Z,52.03
2019-01-19T04:33:18.920Z,51.70
2019-01-19T04:33:51.064Z,52.23
2019-01-19T04:34:22.284Z,49.30
2019-01-19T04:34:53.470Z,52.15
2019-01-19T04:35:24.701Z,47.83
2019-01-19T04:35:55.904Z,53.63
2019-01-19T04:36:27.099Z,50.20
2019-01-19T04:36:58.631Z,48.85
2019-01-19T04:37:29.848Z,55.58
2019-01-19T04:38:01.036Z,55.85
2019-01-19T04:38:33.663Z,53.55
2019-01-19T04:39:04.933Z,58.73
2019-01-19T04:39:36.134Z,54.55
2019-01-19T04:40:07.311Z,56.98
2019-01-19T04:40:38.552Z,58.60
2019-01-19T04:41:09.732Z,57.00
2019-01-19T04:41:40.918Z,58.20
2019-01-19T04:42:12.104Z,57.10
2019-01-19T04:42:43.265Z,51.55
2019-01-19T04:43:14.452Z,50.85
2019-01-19T04:43:47.536Z,57.38
2019-01-19T04:44:18.728Z,51.55
2019-01-19T04:44:49.899Z,54.70
2019-01-19T04:45:21.075Z,50.12
2019-01-19T04:45:52.259Z,54.80
2019-01-19T04:46:23.466Z,56.80
2019-01-19T04:46:54.675Z,56.20
2019-01-19T04:47:25.856Z,55.67
2019-01-19T04:47:57.079Z,54.48
2019-01-19T04:48:28.255Z,51.48
2019-01-19T04:48:59.470Z,55.33
2019-01-19T04:49:30.635Z,55.50
2019-01-19T04:50:01.816Z,57.98
2019-01-19T04:50:33.025Z,60.30
2019-01-19T04:51:04.209Z,60.95
2019-01-19T04:51:35.427Z,61.73
2019-01-19T04:52:06.606Z,57.53
2019-01-19T04:52:37.798Z,60.30
2019-01-19T04:53:08.935Z,57.40
2019-01-19T04:53:40.112Z,61.73
2019-01-19T04:54:11.305Z,59.03
2019-01-19T04:54:42.493Z,59.08
2019-01-19T04:55:13.657Z,60.28
2019-01-19T04:55:44.861Z,58.65
2019-01-19T04:56:16.047Z,58.92
2019-01-19T04:56:47.268Z,56.85
2019-01-19T04:57:18.449Z,55.75
2019-01-19T04:57:49.657Z,55.48
2019-01-19T04:58:20.824Z,57.30
2019-01-19T04:58:51.999Z,56.50
2019-01-19T04:59:23.213Z,58.55
2019-01-19T04:59:54.383Z,60.28
2019-01-19T05:00:25.591Z,56.42
2019-01-19T05:00:56.780Z,56.13
2019-01-19T05:01:27.957Z,55.92
2019-01-19T05:01:59.127Z,56.33
2019-01-19T05:02:30.345Z,58.60
2019-01-19T05:03:01.515Z,57.20
2019-01-19T05:03:32.705Z,61.85
2019-01-19T05:04:03.865Z,55.38
2019-01-19T05:04:35.081Z,57.62
2019-01-19T05:05:06.265Z,59.27
2019-01-19T05:05:37.486Z,57.08
2019-01-19T05:06:12.517Z,60.38
2019-01-19T05:06:41.583Z,56.20
2019-01-19T05:07:12.786Z,54.38
2019-01-19T05:07:43.965Z,59.75
2019-01-19T05:08:15.147Z,58.92
2019-01-19T05:08:46.361Z,59.75
2019-01-19T05:09:17.556Z,57.83
2019-01-19T05:09:48.729Z,57.45
2019-01-19T05:10:19.907Z,57.13
2019-01-19T05:10:51.076Z,58.28
2019-01-19T05:11:22.283Z,55.78
2019-01-19T05:11:53.450Z,54.90
2019-01-19T05:12:24.712Z,59.35
2019-01-19T05:12:55.875Z,62.17
2019-01-19T05:13:27.063Z,62.23
2019-01-19T05:13:58.246Z,63.40
2019-01-19T05:14:29.482Z,63.02
2019-01-19T05:15:00.664Z,60.10
2019-01-19T05:15:31.857Z,61.63
2019-01-19T05:16:03.032Z,58.02
2019-01-19T05:16:34.262Z,56.33
2019-01-19T05:17:05.447Z,53.40
2019-01-19T05:17:36.607Z,54.23
2019-01-19T05:18:07.783Z,50.92
2019-01-19T05:18:39.029Z,49.33
2019-01-19T05:19:10.205Z,50.73
2019-01-19T05:19:41.368Z,55.70
2019-01-19T05:20:12.550Z,56.10
2019-01-19T05:20:43.841Z,59.10
2019-01-19T05:21:15.020Z,54.93
2019-01-19T05:21:46.191Z,55.35
2019-01-19T05:22:17.371Z,61.02
2019-01-19T05:22:48.539Z,60.45
2019-01-19T05:23:19.747Z,56.80
2019-01-19T05:23:50.943Z,61.70
2019-01-19T05:24:22.148Z,60.75
2019-01-19T05:24:53.332Z,62.33
2019-01-19T05:25:24.579Z,58.50
2019-01-19T05:25:55.774Z,61.90
2019-01-19T05:26:26.989Z,61.68
2019-01-19T05:26:58.177Z,61.20
2019-01-19T05:27:29.347Z,52.45
2019-01-19T05:28:00.542Z,55.80
2019-01-19T05:28:31.770Z,52.45
2019-01-19T05:29:02.967Z,60.58
2019-01-19T05:29:34.159Z,60.98
2019-01-19T05:30:05.418Z,60.60
2019-01-19T05:30:36.609Z,57.95
2019-01-19T05:31:07.770Z,55.80
2019-01-19T05:31:38.938Z,56.30
2019-01-19T05:32:10.109Z,59.85
2019-01-19T05:32:41.272Z,56.68
2019-01-19T05:33:12.433Z,54.25
2019-01-19T05:33:43.668Z,60.30
2019-01-19T05:34:14.882Z,57.08
2019-01-19T05:34:46.094Z,63.68
2019-01-19T05:35:17.299Z,61.98
2019-01-19T05:35:48.397Z,67.60
2019-01-19T05:36:21.609Z,63.58
2019-01-19T05:36:52.797Z,61.80
2019-01-19T05:37:23.980Z,61.13
2019-01-19T05:37:55.162Z,62.48
2019-01-19T05:38:26.403Z,64.62
2019-01-19T05:38:57.605Z,60.43
2019-01-19T05:39:28.804Z,62.00
2019-01-19T05:40:00.171Z,64.00
2019-01-19T05:40:31.323Z,61.00
2019-01-19T05:41:02.508Z,57.38
2019-01-19T05:41:33.686Z,51.33
2019-01-19T05:42:04.889Z,60.12
2019-01-19T05:42:36.111Z,55.85
2019-01-19T05:43:07.284Z,55.20
2019-01-19T05:43:38.458Z,52.65
2019-01-19T05:44:09.643Z,58.78
2019-01-19T05:44:40.888Z,59.18
2019-01-19T05:45:12.073Z,57.67
2019-01-19T05:45:43.279Z,58.25
2019-01-19T05:46:21.374Z,60.90
2019-01-19T05:46:47.386Z,55.98
2019-01-19T05:47:18.588Z,57.05
2019-01-19T05:47:49.759Z,56.20
2019-01-19T05:48:20.926Z,56.42
2019-01-19T05:48:52.147Z,54.70
2019-01-19T05:49:23.325Z,54.63
2019-01-19T05:49:54.539Z,53.02
2019-01-19T05:50:25.722Z,58.15
2019-01-19T05:50:56.929Z,58.15
2019-01-19T05:51:28.092Z,57.78
2019-01-19T05:51:59.302Z,53.65
2019-01-19T05:52:30.491Z,58.87
2019-01-19T05:53:01.687Z,58.75
2019-01-19T05:53:32.865Z,53.45
2019-01-19T05:54:04.025Z,56.45
2019-01-19T05:54:35.189Z,53.42
2019-01-19T05:55:06.390Z,56.92
2019-01-19T05:55:37.631Z,57.38
2019-01-19T05:56:08.842Z,55.67
2019-01-19T05:56:40.010Z,55.52
2019-01-19T05:57:11.201Z,56.08
2019-01-19T05:57:42.384Z,60.98
2019-01-19T05:58:13.573Z,58.80
2019-01-19T05:58:44.758Z,58.33
2019-01-19T05:59:15.937Z,56.18
2019-01-19T05:59:47.145Z,57.20
2019-01-19T06:00:18.341Z,52.17
2019-01-19T06:00:49.593Z,53.83
2019-01-19T06:01:20.785Z,52.27
2019-01-19T06:01:51.980Z,55.23
2019-01-19T06:02:23.210Z,54.93
2019-01-19T06:02:54.413Z,57.10
2019-01-19T06:03:27.878Z,56.63
2019-01-19T06:03:59.042Z,61.60
2019-01-19T06:04:30.208Z,59.10
2019-01-19T06:05:01.392Z,56.95
2019-01-19T06:05:32.610Z,58.90
2019-01-19T06:06:03.783Z,63.40
2019-01-19T06:06:34.967Z,61.53
2019-01-19T06:07:06.156Z,62.10
2019-01-19T06:07:37.322Z,63.73
2019-01-19T06:08:08.514Z,58.92
2019-01-19T06:08:39.691Z,61.15
2019-01-19T06:09:10.878Z,64.22
2019-01-19T06:09:42.047Z,58.08
2019-01-19T06:10:13.227Z,62.38
2019-01-19T06:10:44.458Z,58.23
2019-01-19T06:11:15.631Z,60.00
2019-01-19T06:11:46.840Z,57.50
2019-01-19T06:12:18.028Z,53.52
2019-01-19T06:12:49.224Z,58.25
2019-01-19T06:13:20.401Z,60.73
2019-01-19T06:13:51.570Z,57.65
2019-01-19T06:14:22.817Z,62.45
2019-01-19T06:14:53.980Z,60.58
2019-01-19T06:15:25.165Z,62.13
2019-01-19T06:15:56.347Z,60.10
2019-01-19T06:16:27.535Z,58.68
2019-01-19T06:16:58.721Z,64.12
2019-01-19T06:17:29.895Z,61.35
2019-01-19T06:18:01.089Z,62.33
2019-01-19T06:18:32.301Z,60.88
2019-01-19T06:19:03.482Z,64.12
2019-01-19T06:19:34.694Z,58.52
2019-01-19T06:20:05.875Z,60.60
2019-01-19T06:20:37.047Z,61.23
2019-01-19T06:21:08.253Z,61.48
2019-01-19T06:21:39.453Z,60.03
2019-01-19T06:22:10.651Z,62.78
2019-01-19T06:22:41.820Z,64.07
2019-01-19T06:23:13.049Z,62.45
2019-01-19T06:23:44.239Z,64.07
2019-01-19T06:24:15.395Z,67.90
2019-01-19T06:24:46.614Z,67.97
2019-01-19T06:25:17.807Z,63.68
2019-01-19T06:25:48.996Z,69.67
2019-01-19T06:26:20.162Z,64.70
2019-01-19T06:26:51.325Z,66.50
2019-01-19T06:27:22.509Z,67.62
2019-01-19T06:27:53.675Z,61.53
2019-01-19T06:28:24.913Z,65.05
2019-01-19T06:28:56.130Z,60.30
2019-01-19T06:29:27.310Z,63.15
2019-01-19T06:29:58.474Z,64.05
2019-01-19T06:30:29.730Z,64.00
2019-01-19T06:31:00.921Z,64.70
2019-01-19T06:31:32.085Z,60.12
2019-01-19T06:32:03.287Z,62.88
2019-01-19T06:32:34.452Z,59.18
2019-01-19T06:33:05.625Z,61.28
2019-01-19T06:33:36.799Z,59.93
2019-01-19T06:34:07.966Z,62.43
2019-01-19T06:34:39.146Z,59.65
2019-01-19T06:35:10.329Z,62.00
2019-01-19T06:35:41.544Z,61.75
2019-01-19T06:36:12.715Z,62.20
2019-01-19T06:36:43.925Z,60.73
2019-01-19T06:37:15.112Z,63.20
2019-01-19T06:37:46.290Z,58.63
2019-01-19T06:38:17.506Z,61.75
2019-01-19T06:38:48.719Z,62.88
2019-01-19T06:39:19.897Z,65.28
2019-01-19T06:39:51.073Z,62.03
2019-01-19T06:40:22.248Z,61.18
2019-01-19T06:40:53.409Z,64.58
2019-01-19T06:41:24.615Z,58.78
2019-01-19T06:41:55.829Z,56.35